Flight Track Log - Related Links

Times and Time Zones

All times are in EDT time to prevent confusion due to time zone crossing. See the SWQ803 flight status page for this flight to view local times or setup timezone preferences in your user account.

Time Position Orientation Groundspeed Altitude Reporting Facility
EDT Latitude Longitude Course Direction KTS MPH feet Rate Location/Type
Wed 02:25:20 AM 42.3500 -70.9833 360° North 154 177 800  Level KA90
Wed 02:25:25 AM 42.3500 -70.9833 134° Southeast 151 174 1,000 1,875 Climbing KA90
Wed 02:26:08 AM 42.3325 -70.9592 134° Southeast 157 181 2,300 2,000 Climbing Boston Center
Wed 02:27:10 AM 42.3361 -70.8758 87° East 220 253 4,500 2,500 Climbing Boston Center
Wed 02:28:08 AM 42.3042 -70.7981 119° Southeast 283 326 7,300 3,050 Climbing Boston Center
Wed 02:29:10 AM 42.2375 -70.7408 148° Southeast 287 330 10,600 2,678 Climbing Boston Center
Wed 02:30:09 AM 42.1436 -70.7319 176° South 330 380 12,700 2,797 Climbing Boston Center
Wed 02:31:08 AM 42.0394 -70.7344 181° South 367 422 16,100 3,176 Climbing Boston Center
Wed 02:32:08 AM 41.9311 -70.7425 183° South 387 445 19,000 2,780 Climbing Boston Center
Wed 02:33:11 AM 41.8158 -70.7631 188° South 421 484 21,800 2,727 Climbing Boston Center
Wed 02:34:09 AM 41.7144 -70.8383 209° Southwest 420 483 24,500 2,492 Climbing Boston Center
Wed 02:35:09 AM 41.6094 -70.9186 210° Southwest 432 497 26,700 2,262 Climbing Boston Center
Wed 02:36:11 AM 41.5208 -71.0269 222° Southwest 436 502 29,100 2,262 Climbing Boston Center
Wed 02:37:11 AM 41.4431 -71.1525 230° Southwest 435 501 31,300 2,390 Climbing Boston Center
Wed 02:38:09 AM 41.3600 -71.2864 230° Southwest 435 501 33,800 2,186 Climbing Boston Center
Wed 02:39:09 AM 41.2858 -71.4061 231° Southwest 425 489 35,600 1,091 Climbing Boston Center
Wed 02:40:10 AM 41.2056 -71.4972 221° Southwest 424 488 36,000 198 Climbing Boston Center
Wed 02:41:10 AM 41.1000 -71.5939 215° Southwest 426 490 36,000  Level Boston Center
Wed 02:42:10 AM 41.0139 -71.6975 222° Southwest 421 484 36,000  Level Boston Center
Wed 02:43:10 AM 40.9336 -71.7908 221° Southwest 422 486 36,000  Level Boston Center
Wed 02:44:11 AM 40.8464 -71.8911 221° Southwest 421 484 36,000  Level Boston Center
Wed 02:45:10 AM 40.7594 -71.9922 221° Southwest 421 484 36,000 -50 Level Boston Center
Wed 02:46:10 AM 40.6586 -72.1067 221° Southwest 421 484 35,900 -50 Descending Boston Center
Wed 02:47:10 AM 40.5700 -72.2083 221° Southwest 421 484 35,900  Level Boston Center
Wed 02:48:10 AM 40.4789 -72.3075 220° Southwest 421 484 35,900  Level Boston Center
Wed 02:49:10 AM 40.3889 -72.4078 220° Southwest 422 486 35,900  Level Boston Center
Wed 02:50:11 AM 40.3011 -72.5125 222° Southwest 423 487 35,900  Level Boston Center
Wed 02:51:11 AM 40.2103 -72.6156 221° Southwest 429 494 35,900 50 Level Boston Center
Wed 02:52:11 AM 40.1186 -72.7183 221° Southwest 429 494 36,000 50 Climbing Boston Center
Wed 02:53:11 AM 40.0278 -72.8181 220° Southwest 429 494 36,000  Level Boston Center
Wed 02:53:51 AM 39.9642 -72.8872 220° Southwest 431 496 36,000  Level Washington Center
Wed 02:54:49 AM 39.8747 -72.9853 220° Southwest 431 496 36,000  Level Washington Center
Wed 02:55:49 AM 39.7831 -73.0858 220° Southwest 431 496 36,000  Level Washington Center
Wed 02:56:49 AM 39.6933 -73.1861 221° Southwest 431 496 36,000  Level Washington Center
Wed 02:57:30 AM 39.6439 -73.2403 220° Southwest 438 504 36,000 -42 Level New York Center
Wed 02:59:11 AM 39.4844 -73.4183 221° Southwest 428 493 35,900 -43 Descending Boston Center
Wed 02:59:49 AM 39.4239 -73.4825 219° Southwest 425 489 35,900  Level Washington Center
Wed 03:00:49 AM 39.3361 -73.5817 221° Southwest 430 495 35,900  Level Washington Center
Wed 03:01:50 AM 39.2481 -73.6806 221° Southwest 424 488 35,900  Level Washington Center
Wed 03:02:50 AM 39.1600 -73.7767 220° Southwest 429 494 35,900  Level Washington Center
Wed 03:03:49 AM 39.0678 -73.8778 220° Southwest 429 494 35,900  Level Washington Center
Wed 03:04:49 AM 38.9836 -73.9706 221° Southwest 423 487 35,900  Level Washington Center
Wed 03:05:49 AM 38.8931 -74.0689 220° Southwest 423 487 35,900  Level Washington Center
Wed 03:06:49 AM 38.8047 -74.1639 220° Southwest 429 494 35,900  Level Washington Center
Wed 03:07:49 AM 38.7181 -74.2614 221° Southwest 429 494 35,900  Level Washington Center
Wed 03:08:49 AM 38.6275 -74.3586 220° Southwest 429 494 35,900  Level Washington Center
Wed 03:09:49 AM 38.5389 -74.4556 221° Southwest 423 487 35,900  Level Washington Center
Wed 03:10:51 AM 38.4522 -74.5497 220° Southwest 423 487 35,900  Level Washington Center
Wed 03:11:49 AM 38.3611 -74.6492 221° Southwest 428 493 35,900  Level Washington Center
Wed 03:12:51 AM 38.2722 -74.7375 218° Southwest 428 493 35,900  Level Washington Center
Wed 03:13:49 AM 38.1978 -74.8256 223° Southwest 423 487 35,900  Level Washington Center
Wed 03:14:49 AM 38.1067 -74.9214 220° Southwest 423 487 35,900  Level Washington Center
Wed 03:15:49 AM 38.0172 -75.0119 219° Southwest 423 487 35,900  Level Washington Center
Wed 03:16:49 AM 37.9281 -75.1075 220° Southwest 423 487 35,900  Level Washington Center
Wed 03:17:49 AM 37.8347 -75.2000 218° Southwest 429 494 35,900  Level Washington Center
Wed 03:18:49 AM 37.7453 -75.2950 220° Southwest 429 494 35,900  Level Washington Center
Wed 03:19:51 AM 37.6536 -75.3925 220° Southwest 429 494 35,900  Level Washington Center
Wed 03:20:51 AM 37.5619 -75.4869 219° Southwest 429 494 35,900  Level Washington Center
Wed 03:21:52 AM 37.4725 -75.5814 220° Southwest 429 494 35,900  Level Washington Center
Wed 03:22:51 AM 37.3806 -75.6756 219° Southwest 429 494 35,900  Level Washington Center
Wed 03:23:51 AM 37.2908 -75.7694 220° Southwest 429 494 35,900  Level Washington Center
Wed 03:24:52 AM 37.1989 -75.8631 219° Southwest 429 494 35,900  Level Washington Center
Wed 03:25:50 AM 37.1067 -75.9592 220° Southwest 429 494 35,900  Level Washington Center
Wed 03:26:51 AM 37.0167 -76.0550 220° Southwest 429 494 35,900 49 Level Washington Center
Wed 03:27:52 AM 36.9164 -76.1425 215° Southwest 436 502 36,000 50 Climbing Washington Center
Wed 03:28:51 AM 36.8242 -76.2328 218° Southwest 442 509 36,000  Level Washington Center
Wed 03:29:51 AM 36.7339 -76.3253 219° Southwest 436 502 36,000 -51 Level Washington Center
Wed 03:30:49 AM 36.6308 -76.4253 218° Southwest 436 502 35,900 -51 Descending Washington Center
Wed 03:31:49 AM 36.5219 -76.4811 202° Southwest 426 490 35,900  Level Washington Center
Wed 03:32:49 AM 36.4131 -76.5392 203° Southwest 420 483 35,900  Level Washington Center
Wed 03:33:50 AM 36.3061 -76.5972 204° Southwest 425 489 35,900  Level Washington Center
Wed 03:34:49 AM 36.2014 -76.6525 203° Southwest 425 489 35,900  Level Washington Center
Wed 03:35:49 AM 36.0944 -76.7128 204° Southwest 425 489 35,900  Level Washington Center
Wed 03:36:49 AM 35.9875 -76.7678 203° Southwest 420 483 35,900  Level Washington Center
Wed 03:37:49 AM 35.8806 -76.8303 205° Southwest 420 483 35,900 50 Level Washington Center
Wed 03:38:49 AM 35.7736 -76.8850 203° Southwest 420 483 36,000  Climbing Washington Center
Wed 03:39:49 AM 35.6664 -76.9394 202° Southwest 420 483 35,900  Descending Washington Center
Wed 03:40:52 AM 35.5761 -76.9942 206° Southwest 420 483 36,000 50 Climbing Washington Center
Wed 03:41:49 AM 35.4650 -77.0508 203° Southwest 420 483 36,000  Level Washington Center
Wed 03:42:49 AM 35.3556 -77.1100 204° Southwest 425 489 36,000  Level Washington Center
Wed 03:43:49 AM 35.2486 -77.1664 203° Southwest 425 489 36,000  Level Washington Center
Wed 03:44:50 AM 35.1414 -77.2228 203° Southwest 420 483 36,000  Level Washington Center
Wed 03:45:50 AM 35.0342 -77.2789 203° Southwest 420 483 36,000  Level Washington Center
Wed 03:46:49 AM 34.9292 -77.3350 204° Southwest 420 483 36,000 -50 Level Washington Center
Wed 03:47:49 AM 34.8133 -77.3983 204° Southwest 420 483 35,900 -49 Descending Washington Center
Wed 03:48:51 AM 34.7061 -77.4539 203° Southwest 420 483 35,900  Level Washington Center
Wed 03:49:50 AM 34.6008 -77.5047 202° Southwest 414 476 35,900  Level Washington Center
Wed 03:50:49 AM 34.4936 -77.5625 204° Southwest 420 483 35,900  Level Washington Center
Wed 03:52:45 AM 34.2894 -77.6678 203° Southwest 401 461 35,900 34 Level Jacksonville Center
Wed 03:53:45 AM 34.1789 -77.7222 202° Southwest 406 467 36,000 50 Climbing Jacksonville Center
Wed 03:54:45 AM 34.0706 -77.7761 202° Southwest 425 489 36,000  Level Jacksonville Center
Wed 03:55:45 AM 33.9622 -77.8325 203° Southwest 428 493 36,000  Level Jacksonville Center
Wed 03:56:45 AM 33.8561 -77.8861 203° Southwest 428 493 36,000  Level Jacksonville Center
Wed 03:57:45 AM 33.7456 -77.9425 203° Southwest 429 494 36,000 -50 Level Jacksonville Center
Wed 03:58:45 AM 33.6494 -77.9903 202° Southwest 424 488 35,900 -50 Descending Jacksonville Center
Wed 03:59:45 AM 33.5431 -78.0458 204° Southwest 429 494 35,900  Level Jacksonville Center
Wed 04:00:45 AM 33.4344 -78.1017 203° Southwest 429 494 35,900  Level Jacksonville Center
Wed 04:01:45 AM 33.3239 -78.1547 202° Southwest 429 494 35,900  Level Jacksonville Center
Wed 04:02:45 AM 33.2156 -78.2153 205° Southwest 429 494 35,900 50 Level Jacksonville Center
Wed 04:03:45 AM 33.1069 -78.2681 202° Southwest 429 494 36,000  Climbing Jacksonville Center
Wed 04:04:45 AM 32.9964 -78.3256 204° Southwest 429 494 35,900 -50 Descending Jacksonville Center
Wed 04:05:45 AM 32.8878 -78.3806 203° Southwest 429 494 35,900  Level Jacksonville Center
Wed 04:06:45 AM 32.7769 -78.4331 202° Southwest 429 494 35,900  Level Jacksonville Center
Wed 04:07:45 AM 32.6681 -78.4878 203° Southwest 429 494 35,900  Level Jacksonville Center
Wed 04:08:45 AM 32.5636 -78.5422 204° Southwest 429 494 35,900  Level Jacksonville Center
Wed 04:09:45 AM 32.4528 -78.5967 203° Southwest 429 494 35,900  Level Jacksonville Center
Wed 04:10:45 AM 32.3439 -78.6486 202° Southwest 429 494 35,900  Level Jacksonville Center
Wed 04:11:45 AM 32.2331 -78.7053 203° Southwest 434 499 35,900  Level Jacksonville Center
Wed 04:12:45 AM 32.1242 -78.7594 203° Southwest 434 499 35,900  Level Jacksonville Center
Wed 04:13:45 AM 32.0150 -78.8083 201° Southwest 434 499 35,900  Level Jacksonville Center
Wed 04:14:45 AM 31.9083 -78.8644 204° Southwest 429 494 35,900 50 Level Jacksonville Center
Wed 04:15:45 AM 31.7994 -78.9156 202° Southwest 434 499 36,000  Climbing Jacksonville Center
Wed 04:16:45 AM 31.6883 -78.9692 202° Southwest 434 499 35,900 -50 Descending Jacksonville Center
Wed 04:17:45 AM 31.5814 -79.0200 202° Southwest 429 494 35,900  Level Jacksonville Center
Wed 04:18:45 AM 31.4703 -79.0758 203° Southwest 429 494 35,900  Level Jacksonville Center
Wed 04:19:45 AM 31.3633 -79.1289 203° Southwest 429 494 35,900  Level Jacksonville Center
Wed 04:20:45 AM 31.2564 -79.1817 203° Southwest 429 494 35,900  Level Jacksonville Center
Wed 04:22:31 AM 31.0797 -79.2650 202° Southwest 418 481 35,900  Level Miami Center
Wed 04:23:28 AM 30.9714 -79.3164 202° Southwest 419 482 35,900  Level Miami Center
Wed 04:24:29 AM 30.8625 -79.3683 202° Southwest 420 483 35,900  Level Miami Center
Wed 04:25:29 AM 30.7533 -79.4208 202° Southwest 422 486 35,900  Level Miami Center
Wed 04:26:29 AM 30.6439 -79.4719 202° Southwest 425 489 35,900  Level Miami Center
Wed 04:27:30 AM 30.5336 -79.5247 202° Southwest 425 489 35,900  Level Miami Center
Wed 04:28:30 AM 30.4231 -79.5772 202° Southwest 427 491 35,900  Level Miami Center
Wed 04:29:31 AM 30.3131 -79.6281 202° Southwest 426 490 35,900  Level Miami Center
Wed 04:30:30 AM 30.2039 -79.6806 203° Southwest 426 490 35,900  Level Miami Center
Wed 04:31:32 AM 30.0953 -79.7308 202° Southwest 423 487 35,900  Level Miami Center
Wed 04:32:32 AM 29.9861 -79.7806 202° Southwest 422 486 35,900  Level Miami Center
Wed 04:33:32 AM 29.8778 -79.8319 202° Southwest 421 484 35,900 50 Level Miami Center
Wed 04:34:32 AM 29.7683 -79.8822 202° Southwest 420 483 36,000  Climbing Miami Center
Wed 04:35:34 AM 29.6511 -79.9367 202° Southwest 422 486 35,900  Descending Miami Center
Wed 04:36:32 AM 29.5478 -79.9833 201° Southwest 425 489 36,000 51 Climbing Miami Center
Wed 04:37:32 AM 29.4278 -80.0367 201° Southwest 430 495 36,000 -49 Level Miami Center
Wed 04:38:35 AM 29.3044 -80.0414 182° South 444 511 35,900 -48 Descending Miami Center
Wed 04:39:36 AM 29.1814 -80.0400 179° South 443 510 35,900  Level Miami Center
Wed 04:40:36 AM 29.0578 -80.0411 180° South 443 510 35,900 50 Level Miami Center
Wed 04:41:36 AM 28.9331 -80.0394 179° South 446 513 36,000  Climbing Miami Center
Wed 04:42:35 AM 28.8083 -80.0414 181° South 446 513 35,900  Descending Miami Center
Wed 04:43:35 AM 28.6828 -80.0422 180° South 447 514 36,000 50 Climbing Miami Center
Wed 04:44:36 AM 28.5375 -80.0389 179° South 450 518 36,000  Level Miami Center
Wed 04:45:36 AM 28.4156 -80.0389 180° South 452 520 36,000  Level Miami Center
Wed 04:46:35 AM 28.2844 -80.0392 180° South 451 519 36,000  Level Miami Center
Wed 04:47:38 AM 28.1650 -80.0414 181° South 449 517 36,000  Level Miami Center
Wed 04:48:38 AM 28.0347 -80.0419 180° South 448 516 36,000  Level Miami Center
Wed 04:49:39 AM 27.9136 -80.0431 180° South 448 516 36,000 -51 Level Miami Center
Wed 04:50:36 AM 27.8019 -80.0436 180° South 449 517 35,900 -50 Descending Miami Center
Wed 04:51:38 AM 27.6747 -80.0447 180° South 450 518 35,900  Level Miami Center
Wed 04:52:37 AM 27.5486 -80.0456 180° South 452 520 35,900  Level Miami Center
Wed 04:53:40 AM 27.4228 -80.0469 181° South 451 519 35,900  Level Miami Center
Wed 04:54:38 AM 27.2972 -80.0492 181° South 451 519 35,900 -1,322 Level Miami Center
Wed 04:55:38 AM 27.1717 -80.0503 180° South 451 519 33,300 -3,421 Descending Miami Center
Wed 04:56:39 AM 27.0286 -80.0519 181° South 458 527 29,000 -3,561 Descending Miami Center
Wed 04:57:41 AM 26.9036 -80.0528 180° South 430 495 26,000 -3,300 Descending Miami Center
Wed 04:58:39 AM 26.7822 -80.0542 181° South 429 494 22,400 -3,500 Descending Miami Center
Wed 04:58:53 AM 26.7614 -80.0553 183° South 426 490 21,800 -2,939 Descending Miami Center
Wed 04:59:28 AM 26.6903 -80.0544 179° South 416 479 20,000 -3,319 Descending Miami Center
Wed 04:59:40 AM 26.6664 -80.0547 181° South 417 480 19,200 -3,246 Descending Miami Center
Wed 05:00:29 AM 26.5747 -80.0575 182° South 409 471 16,700 -3,148 Descending Miami Center
Wed 05:00:41 AM 26.5525 -80.0567 178° South 408 470 16,000 -3,493 Descending Miami Center
Wed 05:01:36 AM 26.4494 -80.0550 179° South 392 451 12,800 -2,609 Descending Miami Center
Wed 05:02:36 AM 26.3497 -80.0381 171° South 350 403 11,000 -850 Descending Miami Center
Wed 05:03:43 AM 26.2472 -80.0192 171° South 351 404 11,000  Level Miami Center
Wed 05:04:37 AM 26.1547 -80.0419 192° South 361 415 11,000  Level Miami Center
Wed 05:05:39 AM 26.0547 -80.0692 194° South 366 421 11,000 -144 Level Miami Center
Wed 05:06:42 AM 25.9553 -80.0969 194° South 327 376 10,700 -864 Descending Miami Center
Wed 05:07:44 AM 25.9125 -80.1650 235° Southwest 302 348 9,200 -1,415 Descending Miami Center
Wed 05:08:45 AM 25.9100 -80.2589 268° West 308 354 7,800 -1,289 Descending Miami Center
Wed 05:09:45 AM 25.9086 -80.3475 269° West 292 336 6,600 -1,150 Descending Miami Center
Wed 05:10:45 AM 25.9075 -80.4331 269° West 281 323 5,500 -991 Descending Miami Center
Wed 05:11:40 AM 25.8975 -80.5042 261° West 229 264 4,700 -783 Descending Miami Center
Wed 05:12:40 AM 25.8511 -80.5400 215° Southwest 189 217 4,000 -793 Descending Miami Center
Wed 05:13:41 AM 25.8072 -80.5364 176° South 152 175 3,100 -480 Descending Miami Center
Wed 05:14:45 AM 25.7933 -80.4939 110° East 153 176 3,000 -290 Descending Miami Center
Wed 05:15:45 AM 25.7944 -80.4453 89° East 155 178 2,500 -712 Descending Miami Center
Wed 05:16:43 AM 25.7956 -80.3944 89° East 158 182 1,600 -778 Descending Miami Center
Wed 05:17:33 AM 25.7975 -80.3644 86° East 105 121 1,100 -563 Descending Miami Center
Wed 05:17:47 AM 25.7986 -80.3578 80° East 130 150 1,000 -529 Descending Miami Center
Wed 05:18:41 AM 25.8000 -80.3253 87° East 118 136 500 -393 Descending Miami Center
Wed 05:19:49 AM 25.8019 -80.2883 87° East 114 131 200 -265 Descending Miami Center

Login

Don't have an account? Register now (free) for customized features, flight alerts, and more!